sensor_id;sensor_type;location;lat;lon;timestamp;P1;durP1;ratioP1;P2;durP2;ratioP2
33760;SDS011;20084;47.912;19.044;2023-05-10T00:00:38;1.60;;;1.50;;
33760;SDS011;20084;47.912;19.044;2023-05-10T00:03:04;2.15;;;1.88;;
33760;SDS011;20084;47.912;19.044;2023-05-10T00:05:30;2.20;;;2.00;;
33760;SDS011;20084;47.912;19.044;2023-05-10T00:07:56;3.70;;;2.63;;
33760;SDS011;20084;47.912;19.044;2023-05-10T00:10:22;2.50;;;1.98;;
33760;SDS011;20084;47.912;19.044;2023-05-10T00:12:48;6.07;;;3.97;;
33760;SDS011;20084;47.912;19.044;2023-05-10T00:15:13;3.00;;;2.40;;
33760;SDS011;20084;47.912;19.044;2023-05-10T00:17:39;2.28;;;1.77;;
33760;SDS011;20084;47.912;19.044;2023-05-10T00:20:05;2.00;;;1.80;;
33760;SDS011;20084;47.912;19.044;2023-05-10T00:22:31;3.15;;;2.50;;
33760;SDS011;20084;47.912;19.044;2023-05-10T00:24:57;2.75;;;1.58;;
33760;SDS011;20084;47.912;19.044;2023-05-10T00:27:24;3.70;;;2.70;;
33760;SDS011;20084;47.912;19.044;2023-05-10T00:29:50;2.42;;;2.00;;
33760;SDS011;20084;47.912;19.044;2023-05-10T00:32:15;2.92;;;1.98;;
33760;SDS011;20084;47.912;19.044;2023-05-10T00:34:41;4.32;;;2.30;;
33760;SDS011;20084;47.912;19.044;2023-05-10T00:37:07;2.42;;;2.22;;
33760;SDS011;20084;47.912;19.044;2023-05-10T00:39:33;2.88;;;2.40;;
33760;SDS011;20084;47.912;19.044;2023-05-10T00:41:58;2.83;;;2.33;;
33760;SDS011;20084;47.912;19.044;2023-05-10T00:44:25;2.10;;;1.90;;
33760;SDS011;20084;47.912;19.044;2023-05-10T00:46:51;2.10;;;1.90;;
33760;SDS011;20084;47.912;19.044;2023-05-10T00:49:17;2.45;;;2.25;;
33760;SDS011;20084;47.912;19.044;2023-05-10T00:51:43;1.63;;;1.52;;
33760;SDS011;20084;47.912;19.044;2023-05-10T00:54:11;4.00;;;2.70;;
33760;SDS011;20084;47.912;19.044;2023-05-10T00:56:38;2.35;;;2.15;;
33760;SDS011;20084;47.912;19.044;2023-05-10T00:59:05;2.40;;;2.20;;
33760;SDS011;20084;47.912;19.044;2023-05-10T01:01:31;2.90;;;2.50;;
33760;SDS011;20084;47.912;19.044;2023-05-10T01:03:57;4.30;;;2.28;;
33760;SDS011;20084;47.912;19.044;2023-05-10T01:06:23;1.92;;;1.83;;
33760;SDS011;20084;47.912;19.044;2023-05-10T01:08:49;3.58;;;2.30;;
33760;SDS011;20084;47.912;19.044;2023-05-10T01:11:15;2.38;;;2.17;;
33760;SDS011;20084;47.912;19.044;2023-05-10T01:13:41;3.10;;;2.50;;
33760;SDS011;20084;47.912;19.044;2023-05-10T01:16:08;2.45;;;2.25;;
33760;SDS011;20084;47.912;19.044;2023-05-10T01:18:38;2.33;;;2.13;;
33760;SDS011;20084;47.912;19.044;2023-05-10T01:23:44;2.42;;;1.80;;
33760;SDS011;20084;47.912;19.044;2023-05-10T01:29:14;2.80;;;2.20;;
33760;SDS011;20084;47.912;19.044;2023-05-10T01:32:17;2.20;;;2.00;;
33760;SDS011;20084;47.912;19.044;2023-05-10T01:34:53;3.33;;;2.30;;
33760;SDS011;20084;47.912;19.044;2023-05-10T01:38:17;2.42;;;2.00;;
33760;SDS011;20084;47.912;19.044;2023-05-10T01:42:51;3.95;;;2.50;;
33760;SDS011;20084;47.912;19.044;2023-05-10T01:45:41;2.17;;;1.70;;
33760;SDS011;20084;47.912;19.044;2023-05-10T01:48:11;3.00;;;2.47;;
33760;SDS011;20084;47.912;19.044;2023-05-10T01:50:41;4.05;;;2.40;;
33760;SDS011;20084;47.912;19.044;2023-05-10T01:53:09;3.10;;;2.28;;
33760;SDS011;20084;47.912;19.044;2023-05-10T01:55:42;2.42;;;2.10;;
33760;SDS011;20084;47.912;19.044;2023-05-10T01:58:15;3.00;;;2.40;;
33760;SDS011;20084;47.912;19.044;2023-05-10T02:00:50;2.33;;;2.10;;
33760;SDS011;20084;47.912;19.044;2023-05-10T02:03:18;4.93;;;2.20;;
33760;SDS011;20084;47.912;19.044;2023-05-10T02:05:46;3.60;;;2.55;;
33760;SDS011;20084;47.912;19.044;2023-05-10T02:08:14;4.35;;;2.13;;
33760;SDS011;20084;47.912;19.044;2023-05-10T02:10:42;3.33;;;2.30;;
33760;SDS011;20084;47.912;19.044;2023-05-10T02:13:09;8.25;;;3.40;;
33760;SDS011;20084;47.912;19.044;2023-05-10T02:15:36;6.45;;;3.20;;
33760;SDS011;20084;47.912;19.044;2023-05-10T02:18:03;4.97;;;3.10;;
33760;SDS011;20084;47.912;19.044;2023-05-10T02:20:31;3.08;;;2.65;;
33760;SDS011;20084;47.912;19.044;2023-05-10T02:22:58;4.00;;;2.92;;
33760;SDS011;20084;47.912;19.044;2023-05-10T02:25:24;3.10;;;2.60;;
33760;SDS011;20084;47.912;19.044;2023-05-10T02:27:51;3.58;;;3.00;;
33760;SDS011;20084;47.912;19.044;2023-05-10T02:30:20;6.20;;;2.83;;
33760;SDS011;20084;47.912;19.044;2023-05-10T02:32:47;3.22;;;2.70;;
33760;SDS011;20084;47.912;19.044;2023-05-10T02:35:15;2.53;;;2.30;;
33760;SDS011;20084;47.912;19.044;2023-05-10T02:37:41;5.05;;;2.72;;
33760;SDS011;20084;47.912;19.044;2023-05-10T02:40:08;2.90;;;2.60;;
33760;SDS011;20084;47.912;19.044;2023-05-10T02:42:36;4.95;;;2.95;;
33760;SDS011;20084;47.912;19.044;2023-05-10T02:45:13;2.90;;;2.53;;
33760;SDS011;20084;47.912;19.044;2023-05-10T02:47:43;2.50;;;2.28;;
33760;SDS011;20084;47.912;19.044;2023-05-10T02:50:09;3.72;;;2.78;;
33760;SDS011;20084;47.912;19.044;2023-05-10T02:52:44;4.18;;;2.70;;
33760;SDS011;20084;47.912;19.044;2023-05-10T02:55:14;3.83;;;2.17;;
33760;SDS011;20084;47.912;19.044;2023-05-10T02:57:43;3.67;;;2.10;;
33760;SDS011;20084;47.912;19.044;2023-05-10T03:00:24;2.45;;;2.17;;
33760;SDS011;20084;47.912;19.044;2023-05-10T03:02:50;3.22;;;2.20;;
33760;SDS011;20084;47.912;19.044;2023-05-10T03:05:15;2.22;;;2.03;;
33760;SDS011;20084;47.912;19.044;2023-05-10T03:07:41;2.83;;;1.90;;
33760;SDS011;20084;47.912;19.044;2023-05-10T03:10:08;3.03;;;2.28;;
33760;SDS011;20084;47.912;19.044;2023-05-10T03:17:55;2.95;;;2.53;;
33760;SDS011;20084;47.912;19.044;2023-05-10T03:20:31;2.95;;;2.40;;
33760;SDS011;20084;47.912;19.044;2023-05-10T03:23:08;4.05;;;2.15;;
33760;SDS011;20084;47.912;19.044;2023-05-10T03:25:42;2.75;;;2.42;;
33760;SDS011;20084;47.912;19.044;2023-05-10T03:28:09;2.00;;;1.90;;
33760;SDS011;20084;47.912;19.044;2023-05-10T03:30:34;3.08;;;2.55;;
33760;SDS011;20084;47.912;19.044;2023-05-10T03:33:07;2.50;;;2.20;;
33760;SDS011;20084;47.912;19.044;2023-05-10T03:35:33;2.90;;;2.60;;
33760;SDS011;20084;47.912;19.044;2023-05-10T03:37:59;4.90;;;2.70;;
33760;SDS011;20084;47.912;19.044;2023-05-10T03:40:25;3.75;;;2.72;;
33760;SDS011;20084;47.912;19.044;2023-05-10T03:42:54;3.00;;;2.58;;
33760;SDS011;20084;47.912;19.044;2023-05-10T03:45:20;3.70;;;2.35;;
33760;SDS011;20084;47.912;19.044;2023-05-10T03:47:45;4.57;;;2.75;;
33760;SDS011;20084;47.912;19.044;2023-05-10T03:50:11;4.50;;;2.00;;
33760;SDS011;20084;47.912;19.044;2023-05-10T03:52:37;2.65;;;2.15;;
33760;SDS011;20084;47.912;19.044;2023-05-10T03:55:04;4.05;;;2.65;;
33760;SDS011;20084;47.912;19.044;2023-05-10T03:57:30;3.97;;;2.97;;
33760;SDS011;20084;47.912;19.044;2023-05-10T03:59:56;3.35;;;2.33;;
33760;SDS011;20084;47.912;19.044;2023-05-10T04:02:21;2.45;;;2.25;;
33760;SDS011;20084;47.912;19.044;2023-05-10T04:04:47;7.82;;;2.70;;
33760;SDS011;20084;47.912;19.044;2023-05-10T04:07:13;3.17;;;2.33;;
33760;SDS011;20084;47.912;19.044;2023-05-10T04:09:39;2.50;;;2.30;;
33760;SDS011;20084;47.912;19.044;2023-05-10T04:12:05;3.00;;;2.35;;
33760;SDS011;20084;47.912;19.044;2023-05-10T04:14:30;3.92;;;2.58;;
33760;SDS011;20084;47.912;19.044;2023-05-10T04:16:56;2.63;;;2.25;;
33760;SDS011;20084;47.912;19.044;2023-05-10T04:19:22;5.03;;;2.67;;
33760;SDS011;20084;47.912;19.044;2023-05-10T04:21:48;3.22;;;2.50;;
33760;SDS011;20084;47.912;19.044;2023-05-10T04:24:13;3.38;;;2.70;;
33760;SDS011;20084;47.912;19.044;2023-05-10T04:26:39;3.22;;;2.67;;
33760;SDS011;20084;47.912;19.044;2023-05-10T04:29:05;2.50;;;2.30;;
33760;SDS011;20084;47.912;19.044;2023-05-10T04:31:31;8.20;;;3.85;;
33760;SDS011;20084;47.912;19.044;2023-05-10T04:33:57;4.32;;;3.30;;
33760;SDS011;20084;47.912;19.044;2023-05-10T04:36:22;5.50;;;3.05;;
33760;SDS011;20084;47.912;19.044;2023-05-10T04:38:48;5.25;;;4.07;;
33760;SDS011;20084;47.912;19.044;2023-05-10T04:41:14;8.30;;;3.08;;
33760;SDS011;20084;47.912;19.044;2023-05-10T04:43:39;6.95;;;2.90;;
33760;SDS011;20084;47.912;19.044;2023-05-10T04:46:05;2.65;;;2.28;;
33760;SDS011;20084;47.912;19.044;2023-05-10T04:48:32;6.25;;;2.75;;
33760;SDS011;20084;47.912;19.044;2023-05-10T04:50:58;5.55;;;2.33;;
33760;SDS011;20084;47.912;19.044;2023-05-10T04:53:24;3.10;;;2.58;;
33760;SDS011;20084;47.912;19.044;2023-05-10T04:55:49;3.88;;;2.60;;
33760;SDS011;20084;47.912;19.044;2023-05-10T04:58:15;2.58;;;2.35;;
33760;SDS011;20084;47.912;19.044;2023-05-10T05:00:41;5.22;;;2.97;;
33760;SDS011;20084;47.912;19.044;2023-05-10T05:03:07;4.03;;;2.42;;
33760;SDS011;20084;47.912;19.044;2023-05-10T05:05:33;3.53;;;2.58;;
33760;SDS011;20084;47.912;19.044;2023-05-10T05:07:58;5.25;;;3.15;;
33760;SDS011;20084;47.912;19.044;2023-05-10T05:10:24;3.30;;;2.63;;
33760;SDS011;20084;47.912;19.044;2023-05-10T05:12:49;3.17;;;2.58;;
33760;SDS011;20084;47.912;19.044;2023-05-10T05:15:15;3.83;;;2.33;;
33760;SDS011;20084;47.912;19.044;2023-05-10T05:17:42;3.00;;;2.75;;
33760;SDS011;20084;47.912;19.044;2023-05-10T05:20:08;3.75;;;2.88;;
33760;SDS011;20084;47.912;19.044;2023-05-10T05:22:35;4.72;;;2.22;;
33760;SDS011;20084;47.912;19.044;2023-05-10T05:25:01;2.85;;;2.60;;
33760;SDS011;20084;47.912;19.044;2023-05-10T05:27:28;2.90;;;2.60;;
33760;SDS011;20084;47.912;19.044;2023-05-10T05:29:57;3.78;;;2.78;;
33760;SDS011;20084;47.912;19.044;2023-05-10T05:32:23;4.00;;;2.38;;
33760;SDS011;20084;47.912;19.044;2023-05-10T05:34:49;3.15;;;2.72;;
33760;SDS011;20084;47.912;19.044;2023-05-10T05:37:16;3.10;;;2.80;;
33760;SDS011;20084;47.912;19.044;2023-05-10T05:39:45;3.50;;;2.53;;
33760;SDS011;20084;47.912;19.044;2023-05-10T05:42:12;3.35;;;2.38;;
33760;SDS011;20084;47.912;19.044;2023-05-10T05:44:38;2.63;;;2.42;;
33760;SDS011;20084;47.912;19.044;2023-05-10T05:47:04;2.63;;;2.42;;
33760;SDS011;20084;47.912;19.044;2023-05-10T05:49:30;4.05;;;2.50;;
33760;SDS011;20084;47.912;19.044;2023-05-10T05:52:00;5.22;;;3.22;;
33760;SDS011;20084;47.912;19.044;2023-05-10T05:54:26;3.70;;;2.60;;
33760;SDS011;20084;47.912;19.044;2023-05-10T05:56:56;4.03;;;2.80;;
33760;SDS011;20084;47.912;19.044;2023-05-10T05:59:23;3.35;;;2.63;;
33760;SDS011;20084;47.912;19.044;2023-05-10T06:01:49;3.80;;;2.60;;
33760;SDS011;20084;47.912;19.044;2023-05-10T06:04:15;2.53;;;2.33;;
33760;SDS011;20084;47.912;19.044;2023-05-10T06:06:41;2.72;;;2.45;;
33760;SDS011;20084;47.912;19.044;2023-05-10T06:09:07;2.85;;;2.25;;
33760;SDS011;20084;47.912;19.044;2023-05-10T06:11:33;2.90;;;2.50;;
33760;SDS011;20084;47.912;19.044;2023-05-10T06:13:59;2.80;;;2.60;;
33760;SDS011;20084;47.912;19.044;2023-05-10T06:16:25;3.38;;;2.78;;
33760;SDS011;20084;47.912;19.044;2023-05-10T06:18:51;3.30;;;2.47;;
33760;SDS011;20084;47.912;19.044;2023-05-10T06:21:17;3.50;;;2.70;;
33760;SDS011;20084;47.912;19.044;2023-05-10T06:23:42;2.50;;;2.30;;
33760;SDS011;20084;47.912;19.044;2023-05-10T06:26:09;4.20;;;2.60;;
33760;SDS011;20084;47.912;19.044;2023-05-10T06:28:35;3.83;;;2.80;;
33760;SDS011;20084;47.912;19.044;2023-05-10T06:31:03;4.15;;;2.50;;
33760;SDS011;20084;47.912;19.044;2023-05-10T06:33:29;4.60;;;2.63;;
33760;SDS011;20084;47.912;19.044;2023-05-10T06:35:55;6.20;;;3.28;;
33760;SDS011;20084;47.912;19.044;2023-05-10T06:38:21;3.83;;;2.92;;
33760;SDS011;20084;47.912;19.044;2023-05-10T06:40:46;3.28;;;2.55;;
33760;SDS011;20084;47.912;19.044;2023-05-10T06:43:12;2.75;;;2.50;;
33760;SDS011;20084;47.912;19.044;2023-05-10T06:45:38;3.97;;;2.78;;
33760;SDS011;20084;47.912;19.044;2023-05-10T06:48:03;3.40;;;3.10;;
33760;SDS011;20084;47.912;19.044;2023-05-10T06:50:29;6.22;;;2.88;;
33760;SDS011;20084;47.912;19.044;2023-05-10T06:52:55;3.03;;;2.40;;
33760;SDS011;20084;47.912;19.044;2023-05-10T06:55:21;3.58;;;2.20;;
33760;SDS011;20084;47.912;19.044;2023-05-10T06:57:46;3.65;;;2.90;;
33760;SDS011;20084;47.912;19.044;2023-05-10T07:00:13;3.88;;;3.15;;
33760;SDS011;20084;47.912;19.044;2023-05-10T07:02:39;3.28;;;2.97;;
33760;SDS011;20084;47.912;19.044;2023-05-10T07:05:04;3.40;;;3.10;;
33760;SDS011;20084;47.912;19.044;2023-05-10T07:07:31;4.65;;;3.13;;
33760;SDS011;20084;47.912;19.044;2023-05-10T07:09:56;2.75;;;2.55;;
33760;SDS011;20084;47.912;19.044;2023-05-10T07:12:23;5.07;;;2.40;;
33760;SDS011;20084;47.912;19.044;2023-05-10T07:14:49;2.80;;;2.60;;
33760;SDS011;20084;47.912;19.044;2023-05-10T07:17:14;5.50;;;2.83;;
33760;SDS011;20084;47.912;19.044;2023-05-10T07:19:40;3.00;;;2.63;;
33760;SDS011;20084;47.912;19.044;2023-05-10T07:22:06;3.22;;;2.70;;
33760;SDS011;20084;47.912;19.044;2023-05-10T07:24:32;2.55;;;2.35;;
33760;SDS011;20084;47.912;19.044;2023-05-10T07:26:58;2.75;;;2.45;;
33760;SDS011;20084;47.912;19.044;2023-05-10T07:29:24;3.42;;;2.30;;
33760;SDS011;20084;47.912;19.044;2023-05-10T07:31:49;5.35;;;2.50;;
33760;SDS011;20084;47.912;19.044;2023-05-10T07:34:15;3.38;;;2.50;;
33760;SDS011;20084;47.912;19.044;2023-05-10T07:36:41;5.45;;;2.40;;
33760;SDS011;20084;47.912;19.044;2023-05-10T07:39:06;2.35;;;2.15;;
33760;SDS011;20084;47.912;19.044;2023-05-10T07:41:32;3.60;;;2.50;;
33760;SDS011;20084;47.912;19.044;2023-05-10T07:43:58;3.42;;;2.20;;
33760;SDS011;20084;47.912;19.044;2023-05-10T07:46:23;3.65;;;2.55;;
33760;SDS011;20084;47.912;19.044;2023-05-10T07:48:49;2.80;;;2.60;;
33760;SDS011;20084;47.912;19.044;2023-05-10T07:51:15;8.93;;;2.67;;
33760;SDS011;20084;47.912;19.044;2023-05-10T07:53:40;3.15;;;2.08;;
33760;SDS011;20084;47.912;19.044;2023-05-10T07:56:22;4.80;;;3.28;;
33760;SDS011;20084;47.912;19.044;2023-05-10T07:58:51;5.65;;;2.33;;
33760;SDS011;20084;47.912;19.044;2023-05-10T08:01:17;3.58;;;2.45;;
33760;SDS011;20084;47.912;19.044;2023-05-10T08:03:42;2.60;;;2.40;;
33760;SDS011;20084;47.912;19.044;2023-05-10T08:06:08;3.17;;;2.38;;
33760;SDS011;20084;47.912;19.044;2023-05-10T08:08:34;3.60;;;2.80;;
33760;SDS011;20084;47.912;19.044;2023-05-10T08:10:59;3.30;;;2.47;;
33760;SDS011;20084;47.912;19.044;2023-05-10T08:13:25;2.63;;;2.30;;
33760;SDS011;20084;47.912;19.044;2023-05-10T08:15:51;6.20;;;2.30;;
33760;SDS011;20084;47.912;19.044;2023-05-10T08:18:18;2.65;;;2.42;;
33760;SDS011;20084;47.912;19.044;2023-05-10T08:20:44;2.80;;;2.42;;
33760;SDS011;20084;47.912;19.044;2023-05-10T08:23:10;2.50;;;2.30;;
33760;SDS011;20084;47.912;19.044;2023-05-10T08:25:37;2.85;;;2.65;;
33760;SDS011;20084;47.912;19.044;2023-05-10T08:28:02;8.07;;;2.42;;
33760;SDS011;20084;47.912;19.044;2023-05-10T08:30:28;3.33;;;2.33;;
33760;SDS011;20084;47.912;19.044;2023-05-10T08:32:54;4.15;;;2.90;;
33760;SDS011;20084;47.912;19.044;2023-05-10T08:35:20;3.08;;;2.28;;
33760;SDS011;20084;47.912;19.044;2023-05-10T08:37:45;3.25;;;2.95;;
33760;SDS011;20084;47.912;19.044;2023-05-10T08:40:11;2.97;;;2.72;;
33760;SDS011;20084;47.912;19.044;2023-05-10T08:42:39;2.58;;;2.20;;
33760;SDS011;20084;47.912;19.044;2023-05-10T08:45:08;9.93;;;4.65;;
33760;SDS011;20084;47.912;19.044;2023-05-10T08:47:36;2.58;;;2.15;;
33760;SDS011;20084;47.912;19.044;2023-05-10T08:50:03;2.60;;;2.40;;
33760;SDS011;20084;47.912;19.044;2023-05-10T08:52:30;2.45;;;2.25;;
33760;SDS011;20084;47.912;19.044;2023-05-10T08:54:57;2.72;;;2.10;;
33760;SDS011;20084;47.912;19.044;2023-05-10T08:57:23;9.93;;;2.88;;
33760;SDS011;20084;47.912;19.044;2023-05-10T08:59:49;4.00;;;2.28;;
33760;SDS011;20084;47.912;19.044;2023-05-10T09:02:15;2.83;;;2.28;;
33760;SDS011;20084;47.912;19.044;2023-05-10T09:04:43;3.30;;;2.53;;
33760;SDS011;20084;47.912;19.044;2023-05-10T09:07:09;3.38;;;2.17;;
33760;SDS011;20084;47.912;19.044;2023-05-10T09:09:36;2.67;;;2.47;;
33760;SDS011;20084;47.912;19.044;2023-05-10T09:12:02;2.42;;;2.22;;
33760;SDS011;20084;47.912;19.044;2023-05-10T09:14:28;2.45;;;2.25;;
33760;SDS011;20084;47.912;19.044;2023-05-10T09:16:55;2.10;;;1.90;;
33760;SDS011;20084;47.912;19.044;2023-05-10T09:19:21;3.08;;;2.05;;
33760;SDS011;20084;47.912;19.044;2023-05-10T09:21:47;3.10;;;2.05;;
33760;SDS011;20084;47.912;19.044;2023-05-10T09:24:14;6.20;;;2.92;;
33760;SDS011;20084;47.912;19.044;2023-05-10T09:26:47;9.85;;;3.47;;
33760;SDS011;20084;47.912;19.044;2023-05-10T09:29:16;2.83;;;2.60;;
33760;SDS011;20084;47.912;19.044;2023-05-10T09:31:43;2.97;;;2.67;;
33760;SDS011;20084;47.912;19.044;2023-05-10T09:34:11;8.80;;;5.63;;
33760;SDS011;20084;47.912;19.044;2023-05-10T09:36:56;6.07;;;4.68;;
33760;SDS011;20084;47.912;19.044;2023-05-10T09:39:44;3.78;;;2.47;;
33760;SDS011;20084;47.912;19.044;2023-05-10T09:42:09;2.63;;;2.42;;
33760;SDS011;20084;47.912;19.044;2023-05-10T09:44:35;3.00;;;2.28;;
33760;SDS011;20084;47.912;19.044;2023-05-10T09:47:01;2.78;;;2.53;;
33760;SDS011;20084;47.912;19.044;2023-05-10T09:49:27;4.00;;;2.20;;
33760;SDS011;20084;47.912;19.044;2023-05-10T09:52:03;3.15;;;2.20;;
33760;SDS011;20084;47.912;19.044;2023-05-10T09:54:30;3.75;;;2.00;;
33760;SDS011;20084;47.912;19.044;2023-05-10T09:56:57;4.45;;;2.10;;
33760;SDS011;20084;47.912;19.044;2023-05-10T09:59:24;3.80;;;2.47;;
33760;SDS011;20084;47.912;19.044;2023-05-10T10:01:51;2.65;;;2.45;;
33760;SDS011;20084;47.912;19.044;2023-05-10T10:04:18;5.43;;;2.10;;
33760;SDS011;20084;47.912;19.044;2023-05-10T10:06:46;2.78;;;2.15;;
33760;SDS011;20084;47.912;19.044;2023-05-10T10:09:23;2.28;;;2.10;;
33760;SDS011;20084;47.912;19.044;2023-05-10T10:11:49;2.13;;;1.92;;
33760;SDS011;20084;47.912;19.044;2023-05-10T10:14:16;2.72;;;2.33;;
33760;SDS011;20084;47.912;19.044;2023-05-10T10:16:43;2.20;;;2.00;;
33760;SDS011;20084;47.912;19.044;2023-05-10T10:19:10;3.42;;;2.33;;
33760;SDS011;20084;47.912;19.044;2023-05-10T10:21:35;3.53;;;2.55;;
33760;SDS011;20084;47.912;19.044;2023-05-10T10:24:01;3.20;;;2.90;;
33760;SDS011;20084;47.912;19.044;2023-05-10T10:26:30;6.35;;;3.72;;
33760;SDS011;20084;47.912;19.044;2023-05-10T10:34:28;1.70;;;1.60;;
33760;SDS011;20084;47.912;19.044;2023-05-10T10:36:55;2.10;;;1.90;;
33760;SDS011;20084;47.912;19.044;2023-05-10T10:39:22;2.47;;;1.95;;
33760;SDS011;20084;47.912;19.044;2023-05-10T10:41:53;2.60;;;2.00;;
33760;SDS011;20084;47.912;19.044;2023-05-10T10:49:50;1.65;;;1.55;;
33760;SDS011;20084;47.912;19.044;2023-05-10T10:52:40;2.88;;;1.52;;
33760;SDS011;20084;47.912;19.044;2023-05-10T11:03:06;2.20;;;1.50;;
33760;SDS011;20084;47.912;19.044;2023-05-10T11:05:48;1.52;;;1.23;;
33760;SDS011;20084;47.912;19.044;2023-05-10T11:13:45;2.22;;;1.98;;
33760;SDS011;20084;47.912;19.044;2023-05-10T11:16:24;1.50;;;1.40;;
33760;SDS011;20084;47.912;19.044;2023-05-10T11:18:57;1.80;;;1.40;;
33760;SDS011;20084;47.912;19.044;2023-05-10T11:21:31;4.70;;;1.60;;
33760;SDS011;20084;47.912;19.044;2023-05-10T11:23:58;3.42;;;1.65;;
33760;SDS011;20084;47.912;19.044;2023-05-10T11:26:25;1.88;;;1.38;;
33760;SDS011;20084;47.912;19.044;2023-05-10T11:28:56;3.72;;;1.65;;
33760;SDS011;20084;47.912;19.044;2023-05-10T11:31:23;1.50;;;1.40;;
33760;SDS011;20084;47.912;19.044;2023-05-10T11:33:52;2.17;;;1.23;;
33760;SDS011;20084;47.912;19.044;2023-05-10T11:38:52;2.10;;;1.23;;
33760;SDS011;20084;47.912;19.044;2023-05-10T11:41:19;1.50;;;1.40;;
33760;SDS011;20084;47.912;19.044;2023-05-10T11:43:47;1.52;;;1.33;;
33760;SDS011;20084;47.912;19.044;2023-05-10T11:46:16;1.27;;;1.15;;
33760;SDS011;20084;47.912;19.044;2023-05-10T11:48:45;1.20;;;1.10;;
33760;SDS011;20084;47.912;19.044;2023-05-10T11:51:11;2.03;;;1.50;;
33760;SDS011;20084;47.912;19.044;2023-05-10T11:53:37;4.68;;;1.27;;
33760;SDS011;20084;47.912;19.044;2023-05-10T11:56:06;1.30;;;1.20;;
33760;SDS011;20084;47.912;19.044;2023-05-10T11:58:33;1.40;;;1.02;;
33760;SDS011;20084;47.912;19.044;2023-05-10T12:01:00;1.40;;;1.30;;
33760;SDS011;20084;47.912;19.044;2023-05-10T12:03:27;2.00;;;1.20;;
33760;SDS011;20084;47.912;19.044;2023-05-10T12:05:53;2.55;;;1.63;;
33760;SDS011;20084;47.912;19.044;2023-05-10T12:08:21;1.98;;;1.35;;
33760;SDS011;20084;47.912;19.044;2023-05-10T12:10:48;2.45;;;1.50;;
33760;SDS011;20084;47.912;19.044;2023-05-10T12:13:14;1.73;;;1.20;;
33760;SDS011;20084;47.912;19.044;2023-05-10T12:15:40;1.25;;;1.00;;
33760;SDS011;20084;47.912;19.044;2023-05-10T12:18:11;1.30;;;1.20;;
33760;SDS011;20084;47.912;19.044;2023-05-10T12:20:37;2.75;;;1.38;;
33760;SDS011;20084;47.912;19.044;2023-05-10T12:23:03;1.55;;;1.20;;
33760;SDS011;20084;47.912;19.044;2023-05-10T12:25:30;1.17;;;1.08;;
33760;SDS011;20084;47.912;19.044;2023-05-10T12:27:58;1.30;;;1.13;;
33760;SDS011;20084;47.912;19.044;2023-05-10T12:30:28;2.97;;;1.05;;
33760;SDS011;20084;47.912;19.044;2023-05-10T12:33:01;3.15;;;1.35;;
33760;SDS011;20084;47.912;19.044;2023-05-10T12:35:32;1.80;;;1.00;;
33760;SDS011;20084;47.912;19.044;2023-05-10T12:37:59;4.50;;;1.08;;
33760;SDS011;20084;47.912;19.044;2023-05-10T12:40:25;5.03;;;1.23;;
33760;SDS011;20084;47.912;19.044;2023-05-10T12:42:50;3.55;;;1.17;;
33760;SDS011;20084;47.912;19.044;2023-05-10T12:45:17;1.27;;;1.05;;
33760;SDS011;20084;47.912;19.044;2023-05-10T12:47:43;1.73;;;0.88;;
33760;SDS011;20084;47.912;19.044;2023-05-10T12:50:09;3.40;;;1.08;;
33760;SDS011;20084;47.912;19.044;2023-05-10T12:52:35;1.02;;;0.90;;
33760;SDS011;20084;47.912;19.044;2023-05-10T12:55:02;1.85;;;1.13;;
33760;SDS011;20084;47.912;19.044;2023-05-10T12:57:28;5.57;;;1.60;;
33760;SDS011;20084;47.912;19.044;2023-05-10T12:59:54;3.25;;;0.90;;
33760;SDS011;20084;47.912;19.044;2023-05-10T13:02:20;1.73;;;1.52;;
33760;SDS011;20084;47.912;19.044;2023-05-10T13:04:47;1.75;;;1.65;;
33760;SDS011;20084;47.912;19.044;2023-05-10T13:07:13;6.05;;;1.17;;
33760;SDS011;20084;47.912;19.044;2023-05-10T13:09:39;2.22;;;1.35;;
33760;SDS011;20084;47.912;19.044;2023-05-10T13:12:05;6.65;;;1.40;;
33760;SDS011;20084;47.912;19.044;2023-05-10T13:14:31;3.00;;;1.15;;
33760;SDS011;20084;47.912;19.044;2023-05-10T13:16:57;2.65;;;0.90;;
33760;SDS011;20084;47.912;19.044;2023-05-10T13:19:22;6.68;;;1.30;;
33760;SDS011;20084;47.912;19.044;2023-05-10T13:21:48;2.30;;;0.93;;
33760;SDS011;20084;47.912;19.044;2023-05-10T13:24:14;1.15;;;1.00;;
33760;SDS011;20084;47.912;19.044;2023-05-10T13:26:40;4.22;;;1.85;;
33760;SDS011;20084;47.912;19.044;2023-05-10T13:29:06;2.60;;;0.82;;
33760;SDS011;20084;47.912;19.044;2023-05-10T13:31:32;1.30;;;1.20;;
33760;SDS011;20084;47.912;19.044;2023-05-10T13:33:58;1.38;;;1.00;;
33760;SDS011;20084;47.912;19.044;2023-05-10T13:36:23;2.28;;;1.67;;
33760;SDS011;20084;47.912;19.044;2023-05-10T13:38:49;2.20;;;1.70;;
33760;SDS011;20084;47.912;19.044;2023-05-10T13:41:15;4.55;;;1.80;;
33760;SDS011;20084;47.912;19.044;2023-05-10T13:43:40;1.30;;;1.02;;
33760;SDS011;20084;47.912;19.044;2023-05-10T13:46:06;1.60;;;1.27;;
33760;SDS011;20084;47.912;19.044;2023-05-10T13:48:32;2.67;;;1.25;;
33760;SDS011;20084;47.912;19.044;2023-05-10T13:50:57;1.38;;;1.27;;
33760;SDS011;20084;47.912;19.044;2023-05-10T13:53:23;1.88;;;1.60;;
33760;SDS011;20084;47.912;19.044;2023-05-10T13:55:49;1.65;;;1.40;;
33760;SDS011;20084;47.912;19.044;2023-05-10T13:58:14;2.05;;;1.30;;
33760;SDS011;20084;47.912;19.044;2023-05-10T14:00:40;2.20;;;1.40;;
33760;SDS011;20084;47.912;19.044;2023-05-10T14:03:06;1.13;;;0.90;;
33760;SDS011;20084;47.912;19.044;2023-05-10T14:05:33;1.10;;;1.00;;
33760;SDS011;20084;47.912;19.044;2023-05-10T14:07:59;1.40;;;1.00;;
33760;SDS011;20084;47.912;19.044;2023-05-10T14:10:25;2.42;;;1.15;;
33760;SDS011;20084;47.912;19.044;2023-05-10T14:12:50;0.80;;;0.80;;
33760;SDS011;20084;47.912;19.044;2023-05-10T14:15:16;1.98;;;1.77;;
33760;SDS011;20084;47.912;19.044;2023-05-10T14:17:42;4.80;;;1.42;;
33760;SDS011;20084;47.912;19.044;2023-05-10T14:20:07;2.25;;;1.25;;
33760;SDS011;20084;47.912;19.044;2023-05-10T14:22:34;0.98;;;0.93;;
33760;SDS011;20084;47.912;19.044;2023-05-10T14:25:00;3.05;;;1.13;;
33760;SDS011;20084;47.912;19.044;2023-05-10T14:27:26;2.97;;;1.48;;
33760;SDS011;20084;47.912;19.044;2023-05-10T14:29:51;1.42;;;1.30;;
33760;SDS011;20084;47.912;19.044;2023-05-10T14:32:18;1.95;;;1.27;;
33760;SDS011;20084;47.912;19.044;2023-05-10T14:34:44;3.33;;;1.40;;
33760;SDS011;20084;47.912;19.044;2023-05-10T14:37:10;1.23;;;1.13;;
33760;SDS011;20084;47.912;19.044;2023-05-10T14:39:36;1.45;;;1.10;;
33760;SDS011;20084;47.912;19.044;2023-05-10T14:42:02;1.42;;;0.95;;
33760;SDS011;20084;47.912;19.044;2023-05-10T14:44:28;1.52;;;1.05;;
33760;SDS011;20084;47.912;19.044;2023-05-10T14:46:54;3.30;;;1.23;;
33760;SDS011;20084;47.912;19.044;2023-05-10T14:49:21;5.53;;;1.38;;
33760;SDS011;20084;47.912;19.044;2023-05-10T14:51:47;2.53;;;1.95;;
33760;SDS011;20084;47.912;19.044;2023-05-10T14:54:13;3.38;;;1.10;;
33760;SDS011;20084;47.912;19.044;2023-05-10T14:56:39;1.25;;;1.15;;
33760;SDS011;20084;47.912;19.044;2023-05-10T14:59:06;1.25;;;0.90;;
33760;SDS011;20084;47.912;19.044;2023-05-10T15:01:32;2.97;;;1.00;;
33760;SDS011;20084;47.912;19.044;2023-05-10T15:03:59;1.90;;;0.80;;
33760;SDS011;20084;47.912;19.044;2023-05-10T15:06:34;1.55;;;1.02;;
33760;SDS011;20084;47.912;19.044;2023-05-10T15:09:01;3.42;;;1.10;;
33760;SDS011;20084;47.912;19.044;2023-05-10T15:11:28;3.85;;;1.38;;
33760;SDS011;20084;47.912;19.044;2023-05-10T15:13:54;2.45;;;1.10;;